Terminal Aerodrome Forecast
Issued by NWS

Home | Current Version | Previous Version | Text Only | Print | Product List | Glossary On
Versions: 1 2 3 4 5 6 7 8 9 10 11 12 13 14 15 16
000
FTUS41 KBTV 152322
TAFMSS
TAF
KMSS 152322Z 1600/1624 VRB03KT P6SM VCSH OVC045
      TEMPO 1601/1605 3SM -SN BR OVC020
     FM160500 19004KT P6SM VCSH OVC020
     FM161100 VRB03KT P6SM OVC020
     FM161400 27009KT P6SM BKN030=

USA.gov is the U.S. government's official web portal to all federal, state and local government web resources and services.